Latest Weather Observations for Norfolk Island

IDN60801

Issued at 7:05 pm EDT Friday 28 November 2014 (issued every 30 minutes, with the page automatically refreshed every 10 minutes)

About weather observations | Map of weather stations | Latest weather observations for NSW | Other Formats
Station Details ID: 200288 Name: NORFOLK ISLAND AERO Lat: -29.04 Lon: 167.94 Height: 111.73 m
Data from the previous 72 hours. | See also: Recent months at Norfolk Island
Date/Time
EDT
Temp
°C
App
Temp
°C
Dew
Point
Rel
Hum
%
Delta-T
°C
Wind Press
QNH
hPa
Press
MSL
hPa
Rain
since 9 am
mm
Dir
 
Spd
km/h
Gust
km/h
Spd
kts
Gust
kts
28/07:00pm 18.9 15.5 13.7 72 3.0 SE 24 33 13 18 1016.5 - 0.8
28/06:30pm 18.9 15.6 13.9 73 2.9 SE 24 35 13 19 1016.3 - 0.8
28/06:00pm 19.2 15.3 13.4 69 3.3 SE 26 41 14 22 1016.0 - 0.8
28/05:30pm 19.2 14.6 12.2 64 3.9 SE 28 39 15 21 1015.7 1015.3 0.8
28/05:00pm 19.2 15.8 13.6 70 3.2 SE 24 35 13 19 1015.5 - 0.8
28/04:30pm 19.2 16.4 14.2 73 2.9 SSE 22 32 12 17 1015.3 - 0.8
28/04:00pm 19.1 15.1 13.1 68 3.4 SE 26 35 14 19 1015.2 - 0.8
28/03:30pm 19.3 17.0 14.7 74 2.7 SSE 20 32 11 17 1015.2 - 0.8
28/03:00pm 19.4 17.6 16.9 85 1.5 SSE 22 32 12 17 1015.1 - 0.8
28/02:30pm 19.3 17.8 17.7 90 1.0 SSE 22 32 12 17 1015.0 1014.6 0.8
28/02:00pm 19.6 18.9 18.3 92 0.8 SSE 19 32 10 17 1015.0 - 0.8
28/01:49pm 19.3 18.7 18.5 95 0.5 SSE 19 26 10 14 1015.0 - 0.6
28/01:38pm 19.6 18.1 18.5 93 0.7 S 24 33 13 18 1015.1 - 0.2
28/01:30pm 20.7 19.5 17.6 82 1.9 S 20 33 11 18 1015.0 - 0.0
28/01:26pm 22.0 20.5 16.8 72 3.2 SW 20 28 11 15 1015.1 - 0.0
28/01:00pm 22.5 21.5 16.6 69 3.6 SW 17 26 9 14 1015.1 - 0.0
28/12:30pm 22.2 20.8 15.5 66 4.0 WSW 17 20 9 11 1015.1 - 0.0
28/12:00pm 22.1 20.3 15.4 65 4.0 WSW 19 24 10 13 1015.3 - 0.0
28/11:30am 22.1 20.4 16.2 69 3.6 SW 20 28 11 15 1015.5 1015.1 0.0
28/11:00am 20.7 21.9 17.3 81 2.1 WSW 7 9 4 5 1015.6 - 0.0
28/10:30am 19.9 18.5 16.9 83 1.8 WSW 20 30 11 16 1015.7 - 0.0
28/10:00am 22.6 21.8 16.0 66 4.0 W 15 20 8 11 1015.7 - 0.0
28/09:30am 21.9 21.8 15.9 68 3.6 WNW 11 19 6 10 1015.8 - 0.0
28/09:00am 22.1 21.6 15.8 67 3.8 W 13 19 7 10 1015.6 - 0.0
28/08:30am 22.1 21.4 15.4 65 4.0 NW 13 19 7 10 1015.6 1015.2 0.0
28/08:00am 22.0 21.7 15.5 66 3.9 WNW 11 19 6 10 1015.8 - 0.0
28/07:30am 21.5 20.7 15.1 67 3.8 WNW 13 19 7 10 1015.9 - 0.0
28/07:00am 20.7 21.0 15.9 74 2.9 WNW 9 13 5 7 1015.9 - 0.0
28/06:30am 20.6 21.7 16.7 78 2.4 NW 6 9 3 5 1015.7 - 0.0
28/06:00am 19.7 21.1 16.4 81 2.0 NW 4 7 2 4 1015.4 - 0.0
28/05:30am 18.5 20.2 15.3 81 1.9 CALM 0 0 0 0 1015.1 1014.7 0.0
28/05:00am 18.3 20.0 15.2 82 1.8 CALM 0 6 0 3 1014.8 - 0.0
28/04:30am 17.6 18.2 15.2 86 1.4 NNW 6 9 3 5 1014.6 - 0.0
28/04:00am 18.5 19.9 15.5 83 1.8 NNW 2 7 1 4 1014.3 - 0.0
28/03:30am 18.2 19.4 15.8 86 1.4 NW 4 7 2 4 1014.5 - 0.0
28/03:00am 19.2 21.1 15.8 81 2.0 CALM 0 2 0 1 1014.3 - 0.0
28/02:30am 19.2 21.3 16.2 83 1.8 CALM 0 0 0 0 1014.6 1014.2 0.0
28/02:00am 19.2 21.1 15.8 81 2.0 CALM 0 0 0 0 1014.6 - 0.0
28/01:30am 19.0 21.0 16.0 83 1.8 CALM 0 0 0 0 1014.9 - 0.0
28/01:00am 19.0 21.1 16.2 84 1.7 CALM 0 0 0 0 1015.3 - 0.0
28/12:30am 18.9 20.9 16.1 84 1.7 CALM 0 7 0 4 1015.8 - 0.0
28/12:00am 19.2 21.1 15.8 81 2.0 CALM 0 0 0 0 1016.2 - 0.0
 
Date/Time
EDT
Temp
°C
App
Temp
°C
Dew
Point
Rel
Hum
%
Delta-T
°C
Wind Press
QNH
hPa
Press
MSL
hPa
Rain
since 9 am
mm
Dir
 
Spd
km/h
Gust
km/h
Spd
kts
Gust
kts
27/11:30pm 19.1 21.1 16.1 83 1.8 CALM 0 6 0 3 1016.6 1016.2 0.0
27/11:00pm 19.0 19.7 16.0 83 1.8 NNE 7 9 4 5 1016.8 - 0.0
27/10:30pm 19.1 21.1 16.1 83 1.8 CALM 0 0 0 0 1017.3 - 0.0
27/10:00pm 18.6 20.6 16.1 85 1.5 CALM 0 0 0 0 1017.5 - 0.0
27/09:30pm 19.0 21.0 16.0 83 1.8 CALM 0 0 0 0 1017.6 - 0.0
27/09:00pm 19.1 20.1 16.3 84 1.7 ENE 6 7 3 4 1017.7 - 0.0
27/08:30pm 19.0 20.7 16.3 84 1.6 NNE 2 7 1 4 1017.8 1017.5 0.0
27/08:00pm 18.8 20.9 16.3 85 1.5 CALM 0 0 0 0 1017.5 - 0.0
27/07:30pm 19.1 21.2 16.3 84 1.7 CALM 0 0 0 0 1017.3 - 0.0
27/07:00pm 19.8 22.1 16.7 82 1.9 CALM 0 0 0 0 1017.0 - 0.0
27/06:30pm 20.4 21.8 16.4 78 2.4 ESE 4 7 2 4 1016.8 - 0.0
27/06:00pm 20.8 21.6 16.3 75 2.7 SE 7 11 4 6 1016.7 - 0.0
27/05:30pm 21.6 21.9 16.1 71 3.3 SE 9 13 5 7 1016.5 1016.1 0.0
27/05:00pm 21.3 21.2 16.0 72 3.2 SSE 11 13 6 7 1016.3 - 0.0
27/04:30pm 21.2 21.2 16.2 73 3.0 SE 11 15 6 8 1016.1 - 0.0
27/04:00pm 21.4 21.4 16.3 72 3.1 S 11 15 6 8 1015.9 - 0.0
27/03:30pm 21.1 20.9 16.7 76 2.7 S 13 17 7 9 1016.2 - 0.0
27/03:00pm 21.3 21.2 16.9 76 2.7 S 13 17 7 9 1016.1 - 0.0
27/02:30pm 21.9 22.2 15.9 68 3.6 SSE 9 13 5 7 1016.1 1015.7 0.0
27/02:00pm 22.3 22.1 15.7 66 4.0 SSW 11 15 6 8 1016.4 - 0.0
27/01:30pm 22.1 21.9 15.6 66 3.9 SSW 11 15 6 8 1016.6 - 0.0
27/01:00pm 22.4 22.1 15.4 64 4.2 SSW 11 17 6 9 1016.8 - 0.0
27/12:30pm 22.2 23.1 15.2 64 4.2 SW 4 9 2 5 1017.0 - 0.0
27/12:00pm 22.2 22.4 14.8 63 4.4 WSW 7 11 4 6 1017.3 - 0.0
27/11:30am 22.4 23.6 15.0 63 4.4 N 2 9 1 5 1017.8 1017.5 0.0
27/11:00am 22.2 21.9 14.4 61 4.6 ENE 9 13 5 7 1018.0 - 0.0
27/10:30am 22.5 22.1 15.3 63 4.3 NE 11 15 6 8 1018.2 - 0.0
27/10:00am 21.9 22.1 14.6 63 4.3 NNE 7 13 4 7 1018.4 - 0.0
27/09:30am 21.3 20.3 14.7 66 3.9 NNE 13 17 7 9 1018.6 - 0.0
27/09:00am 21.6 21.5 16.1 71 3.3 NE 11 17 6 9 1018.7 - 0.0
27/08:30am 21.6 21.5 16.1 71 3.3 NNE 11 15 6 8 1018.6 1018.3 0.0
27/08:00am 21.4 21.7 15.9 71 3.3 NE 9 11 5 6 1018.9 - 0.0
27/07:30am 21.3 22.2 16.0 72 3.2 ENE 6 9 3 5 1018.9 - 0.0
27/07:00am 20.8 22.1 16.2 75 2.8 NE 4 9 2 5 1018.9 - 0.0
27/06:30am 20.6 22.6 16.1 75 2.7 CALM 0 0 0 0 1018.8 - 0.0
27/06:00am 20.2 22.2 16.0 77 2.5 CALM 0 0 0 0 1018.7 - 0.0
27/05:30am 19.6 21.8 16.4 82 1.9 CALM 0 0 0 0 1018.3 1018.0 0.0
27/05:00am 19.4 21.6 16.4 83 1.8 CALM 0 4 0 2 1018.1 - 0.0
27/04:30am 19.2 19.9 16.2 83 1.8 NE 7 11 4 6 1017.8 - 0.0
27/04:00am 18.2 19.9 16.2 88 1.2 NE 2 7 1 4 1017.9 - 0.0
27/03:30am 18.2 19.7 15.8 86 1.4 NE 2 7 1 4 1017.9 - 0.0
27/03:00am 18.5 19.7 16.0 85 1.5 NE 4 7 2 4 1018.0 - 0.0
27/02:30am 18.0 19.9 15.8 87 1.3 CALM 0 0 0 0 1018.1 1017.8 0.0
27/02:00am 18.5 20.5 16.0 85 1.5 CALM 0 0 0 0 1018.1 - 0.0
27/01:30am 18.4 20.4 16.0 86 1.4 CALM 0 0 0 0 1018.4 - 0.0
27/01:00am 19.2 21.4 16.4 84 1.7 CALM 0 0 0 0 1018.6 - 0.0
27/12:30am 19.5 21.6 16.3 82 1.9 CALM 0 0 0 0 1018.9 - 0.0
27/12:00am 19.6 21.7 16.3 81 2.0 CALM 0 0 0 0 1019.3 - 0.0
 
Date/Time
EDT
Temp
°C
App
Temp
°C
Dew
Point
Rel
Hum
%
Delta-T
°C
Wind Press
QNH
hPa
Press
MSL
hPa
Rain
since 9 am
mm
Dir
 
Spd
km/h
Gust
km/h
Spd
kts
Gust
kts
26/11:30pm 19.2 20.1 16.5 84 1.6 SSE 7 9 4 5 1019.5 1019.2 0.0
26/11:00pm 18.5 20.4 15.8 84 1.6 CALM 0 2 0 1 1019.6 - 0.0
26/10:30pm 17.8 19.6 15.6 87 1.3 CALM 0 0 0 0 1020.0 - 0.0
26/10:00pm 18.2 20.0 15.5 84 1.6 CALM 0 0 0 0 1020.2 - 0.0
26/09:30pm 18.8 20.6 15.4 80 2.0 CALM 0 2 0 1 1020.2 - 0.0
26/09:00pm 19.1 19.8 15.6 80 2.1 E 6 7 3 4 1020.3 - 0.0
26/08:30pm 19.2 19.7 15.5 79 2.2 ESE 7 9 4 5 1020.2 1019.9 0.0
26/08:00pm 19.5 20.5 15.4 77 2.4 E 4 7 2 4 1020.2 - 0.0
26/07:30pm 19.5 20.5 15.3 76 2.5 ESE 4 9 2 5 1019.8 - 0.0
26/07:00pm 19.7 20.3 15.3 76 2.6 E 6 7 3 4 1019.6 - 0.0
26/06:30pm 20.3 20.4 15.6 74 2.8 ESE 9 13 5 7 1019.5 - 0.0
26/06:00pm 20.8 20.5 15.4 71 3.2 ESE 11 15 6 8 1019.2 - 0.0
26/05:30pm 21.1 20.8 15.4 70 3.4 ESE 11 15 6 8 1019.1 1018.8 0.0
26/05:00pm 21.1 19.9 15.0 68 3.6 ESE 15 19 8 10 1018.7 - 0.0
26/04:30pm 22.1 20.8 14.8 63 4.3 SE 15 20 8 11 1018.5 - 0.0
26/04:00pm 22.3 21.4 14.9 63 4.4 ESE 13 20 7 11 1018.5 - 0.0
26/03:30pm 22.4 20.3 15.2 63 4.3 SSE 20 24 11 13 1018.6 - 0.0
26/03:00pm 22.3 21.2 15.3 64 4.2 ESE 15 28 8 15 1018.7 - 0.0
26/02:30pm 23.0 21.8 15.1 61 4.7 ESE 15 20 8 11 1018.8 1018.5 0.0
26/02:00pm 22.1 20.8 14.8 63 4.3 SE 15 17 8 9 1019.0 - 0.0
26/01:30pm 22.1 20.8 14.7 63 4.4 SSE 15 20 8 11 1019.1 - 0.0
26/01:00pm 22.3 21.0 14.7 62 4.5 S 15 20 8 11 1019.3 - 0.0
26/12:30pm 22.4 21.9 15.0 63 4.4 SE 11 15 6 8 1019.4 - 0.0
26/12:00pm 22.6 21.6 14.7 61 4.7 SW 13 24 7 13 1019.5 - 0.0
26/11:30am 22.2 20.8 14.6 62 4.5 SSW 15 22 8 12 1019.6 1019.3 0.0
26/11:00am 22.7 22.7 15.2 62 4.5 SSE 9 28 5 15 1019.6 - 0.0
26/10:30am 22.5 20.3 14.3 59 4.8 ENE 19 26 10 14 1019.6 - 0.0
26/10:00am 22.6 20.5 14.7 61 4.7 NE 19 26 10 14 1019.4 - 0.0
26/09:30am 22.6 21.6 14.5 60 4.8 NE 13 22 7 12 1019.8 - 0.0
26/09:00am 22.0 20.8 14.1 61 4.6 E 13 17 7 9 1019.8 - 0.0
26/08:30am 21.8 20.0 14.5 63 4.3 NE 17 26 9 14 1019.7 1019.4 0.0
26/08:00am 21.2 19.3 14.2 64 4.1 NE 17 20 9 11 1019.8 - 0.0
26/07:30am 21.0 19.6 13.5 62 4.3 NE 13 20 7 11 1020.1 - 0.0
26/07:00am 20.9 19.5 14.4 66 3.8 NE 15 20 8 11 1019.7 - 0.0
26/06:30am 20.4 19.3 14.4 68 3.5 ENE 13 17 7 9 1019.6 - 0.0
26/06:00am 19.9 19.5 15.3 75 2.7 ENE 11 15 6 8 1019.5 - 0.0
26/05:30am 18.2 18.5 15.1 82 1.8 E 7 9 4 5 1019.3 1019.0 0.0
26/05:00am 17.6 17.4 14.8 84 1.6 E 9 9 5 5 1019.1 - 0.0
26/04:30am 17.5 17.7 14.7 83 1.6 E 7 9 4 5 1018.9 - 0.0
26/04:00am 17.2 18.0 14.8 86 1.4 E 4 9 2 5 1018.8 - 0.0
26/03:30am 17.2 17.5 14.6 85 1.5 ENE 6 9 3 5 1018.7 - 0.0
26/03:00am 17.3 17.6 14.5 83 1.6 E 6 9 3 5 1018.7 - 0.0
26/02:30am 17.9 17.7 14.8 82 1.8 ESE 9 11 5 6 1018.8 1018.5 0.0
26/02:00am 17.8 19.5 15.1 84 1.6 CALM 0 0 0 0 1019.1 - 0.0
26/01:30am 17.5 18.3 14.9 85 1.5 ESE 4 7 2 4 1019.3 - 0.0
26/01:00am 17.4 18.9 14.6 83 1.6 CALM 0 0 0 0 1019.5 - 0.0
26/12:30am 17.3 18.8 14.7 85 1.5 CALM 0 0 0 0 1020.0 - 0.0
26/12:00am 17.6 19.2 14.8 84 1.6 CALM 0 0 0 0 1020.3 - 0.0
 
Date/Time
EDT
Temp
°C
App
Temp
°C
Dew
Point
Rel
Hum
%
Delta-T
°C
Wind Press
QNH
hPa
Press
MSL
hPa
Rain
since 9 am
mm
Dir
 
Spd
km/h
Gust
km/h
Spd
kts
Gust
kts
25/11:30pm 17.8 19.3 14.7 82 1.8 CALM 0 0 0 0 1020.5 1020.2 0.0
25/11:00pm 17.8 19.4 14.9 83 1.7 CALM 0 0 0 0 1021.0 - 0.0
25/10:30pm 18.2 19.8 14.8 80 2.0 CALM 0 6 0 3 1021.2 - 0.0
25/10:00pm 18.4 18.9 15.0 80 2.0 SE 6 7 3 4 1021.3 - 0.0
25/09:30pm 18.5 19.7 14.9 79 2.1 E 2 7 1 4 1021.3 - 0.0
25/09:00pm 18.7 19.5 14.7 77 2.3 ESE 4 9 2 5 1021.4 - 0.0
25/08:30pm 19.1 19.3 14.8 76 2.5 SE 7 9 4 5 1021.2 1020.9 0.0
25/08:00pm 18.8 19.6 14.7 77 2.4 ESE 4 7 2 4 1021.1 - 0.0
25/07:30pm 18.9 19.1 14.6 76 2.5 SE 7 9 4 5 1020.7 - 0.0
25/07:00pm 19.0 19.1 14.5 75 2.6 SE 7 9 4 5 1020.4 - 0.0

Other Formats:

Comma delimited format used in spreadsheet applications
http://www.bom.gov.au/fwo/IDN60801/IDN60801.94996.axf

JavaScript Object Notation format (JSON) in row-major order
http://www.bom.gov.au/fwo/IDN60801/IDN60801.94996.json